Time;durP1;ratioP1;P1;durP2;ratioP2;P2;SDS_P1;SDS_P2;PMS_P1;PMS_P2;Temp;Humidity;BMP_temperature;BMP_pressure;BME280_temperature;BME280_humidity;BME280_pressure;Samples;Min_cycle;Max_cycle;Signal;HPM_P1;HPM_P2
2023/03/08 00:03:28;;;;;;;30.47;16.77;;;1.50;99.90;;;;;;2612351;54;20371;-70
2023/03/08 00:09:15;;;;;;;31.87;18.47;;;1.50;99.90;;;;;;2613467;54;20175;-71
2023/03/08 00:15:41;;;;;;;33.30;20.10;;;1.60;99.90;;;;;;2614561;54;20119;-71
2023/03/08 00:41:44;;;;;;;31.30;20.10;;;1.60;99.90;;;;;;2612555;54;20387;-71
2023/03/08 00:47:34;;;;;;;30.10;18.83;;;1.60;99.90;;;;;;2612435;54;20519;-70
2023/03/08 00:53:21;;;;;;;35.00;22.07;;;1.60;99.90;;;;;;2613453;54;20428;-71
2023/03/08 01:02:34;;;;;;;34.57;20.47;;;1.60;99.90;;;;;;2614482;54;20410;-70
2023/03/08 01:08:24;;;;;;;27.80;18.13;;;1.50;99.90;;;;;;2612784;54;20355;-70
2023/03/08 01:14:12;;;;;;;28.67;18.90;;;1.50;99.90;;;;;;2614345;54;20359;-70
2023/03/08 01:19:59;;;;;;;29.73;20.00;;;1.50;99.90;;;;;;2613801;54;20126;-70
2023/03/08 01:25:47;;;;;;;28.43;17.83;;;1.40;99.90;;;;;;2612043;54;20131;-69
2023/03/08 01:31:35;;;;;;;31.30;20.37;;;1.40;99.90;;;;;;2614008;54;20178;-70
2023/03/08 01:37:22;;;;;;;33.40;20.50;;;1.50;99.90;;;;;;2612604;54;20150;-70
2023/03/08 01:53:58;;;;;;;31.90;18.97;;;1.50;99.90;;;;;;2613716;54;20410;-71
2023/03/08 02:03:10;;;;;;;35.57;19.57;;;1.60;99.90;;;;;;2613275;54;20476;-69
2023/03/08 02:09:02;;;;;;;33.27;20.57;;;1.60;99.90;;;;;;2612882;54;20354;-69
2023/03/08 02:14:50;;;;;;;28.07;19.67;;;1.60;99.90;;;;;;2614424;54;20366;-70
2023/03/08 02:20:39;;;;;;;27.13;19.70;;;1.60;99.90;;;;;;2614079;54;20359;-68
2023/03/08 02:26:27;;;;;;;27.43;18.63;;;1.60;99.90;;;;;;2612694;46;20443;-69
2023/03/08 02:32:15;;;;;;;27.03;18.80;;;1.60;99.90;;;;;;2613327;54;20215;-69
2023/03/08 02:38:03;;;;;;;34.90;21.33;;;1.60;99.90;;;;;;2612004;54;20973;-69
2023/03/08 02:43:50;;;;;;;31.90;22.63;;;1.60;99.90;;;;;;2613848;54;20154;-69
2023/03/08 02:49:38;;;;;;;38.13;21.93;;;1.60;99.90;;;;;;2611921;54;20154;-66
2023/03/08 02:55:26;;;;;;;34.33;20.93;;;1.60;99.90;;;;;;2614477;54;20169;-69
2023/03/08 02:58:37;;;;;;;27.33;18.60;;;1.60;99.90;;;;;;2613467;54;20407;-71
2023/03/08 03:01:02;;;;;;;35.20;22.90;;;1.60;99.90;;;;;;2613032;47;20158;-69
2023/03/08 03:06:50;;;;;;;28.50;19.40;;;1.50;99.90;;;;;;2612749;54;20134;-72
2023/03/08 03:12:39;;;;;;;27.93;18.37;;;1.50;99.90;;;;;;2614379;54;20150;-71
2023/03/08 03:18:27;;;;;;;28.17;18.13;;;1.50;99.90;;;;;;2613716;54;20447;-73
2023/03/08 03:24:14;;;;;;;25.13;18.10;;;1.50;99.90;;;;;;2613340;54;20122;-72
2023/03/08 03:30:03;;;;;;;21.17;14.97;;;1.50;99.90;;;;;;2614957;31;20583;-73
2023/03/08 03:35:50;;;;;;;28.13;18.57;;;1.40;99.90;;;;;;2614054;39;20931;-72
2023/03/08 03:41:38;;;;;;;22.70;15.97;;;1.40;99.90;;;;;;2613602;54;20178;-73
2023/03/08 03:47:25;;;;;;;25.43;17.70;;;1.40;99.90;;;;;;2613749;54;20150;-73
2023/03/08 03:53:13;;;;;;;23.53;15.70;;;1.40;99.90;;;;;;2614638;54;20129;-72
2023/03/08 04:03:07;;;;;;;20.27;14.63;;;1.40;99.90;;;;;;2614269;54;20367;-73
2023/03/08 04:15:39;;;;;;;27.90;18.20;;;1.40;99.90;;;;;;2610245;54;20356;-73
2023/03/08 04:21:27;;;;;;;26.13;17.60;;;1.40;99.90;;;;;;2613279;54;20114;-73
2023/03/08 04:27:14;;;;;;;28.63;19.17;;;1.30;99.90;;;;;;2612056;54;21032;-73
2023/03/08 04:33:02;;;;;;;27.77;18.97;;;1.40;99.90;;;;;;2613127;46;20258;-72
2023/03/08 04:38:49;;;;;;;28.37;18.73;;;1.40;99.90;;;;;;2612030;54;20135;-73
2023/03/08 04:44:36;;;;;;;27.80;19.67;;;1.40;99.90;;;;;;2611114;54;20394;-72
2023/03/08 04:50:23;;;;;;;21.00;16.20;;;1.30;99.90;;;;;;2613379;54;20171;-72
2023/03/08 04:56:13;;;;;;;29.73;16.00;;;1.30;99.90;;;;;;2613526;54;20151;-73
2023/03/08 05:05:23;;;;;;;29.10;17.90;;;1.40;99.90;;;;;;2613982;54;20559;-72
2023/03/08 05:17:26;;;;;;;29.70;17.63;;;1.40;99.90;;;;;;2613739;54;20382;-72
2023/03/08 05:23:14;;;;;;;21.43;14.90;;;1.40;99.90;;;;;;2613893;46;20162;-73
2023/03/08 05:29:05;;;;;;;25.00;18.50;;;1.50;99.90;;;;;;2614431;46;20151;-72
2023/03/08 05:34:53;;;;;;;22.63;16.63;;;1.40;99.90;;;;;;2614065;54;20376;-73
2023/03/08 05:40:40;;;;;;;28.93;17.13;;;1.30;99.90;;;;;;2612507;54;20127;-72
2023/03/08 05:46:28;;;;;;;25.60;15.37;;;1.30;99.90;;;;;;2613817;54;20142;-72
2023/03/08 05:52:16;;;;;;;29.33;16.97;;;1.30;99.90;;;;;;2612509;54;20115;-73
2023/03/08 05:58:03;;;;;;;22.63;16.07;;;1.30;99.90;;;;;;2612618;54;20141;-73
2023/03/08 06:03:53;;;;;;;27.47;17.00;;;1.20;99.90;;;;;;2613435;54;20651;-72
2023/03/08 06:09:41;;;;;;;29.33;16.93;;;1.20;99.90;;;;;;2614083;54;20452;-73
2023/03/08 06:15:29;;;;;;;25.00;11.73;;;1.10;99.90;;;;;;2611434;39;20579;-76
2023/03/08 06:21:20;;;;;;;14.20;10.83;;;1.00;99.90;;;;;;2610715;54;20142;-73
2023/03/08 06:27:07;;;;;;;19.60;10.80;;;1.00;99.90;;;;;;2612109;54;20388;-73
2023/03/08 06:32:55;;;;;;;15.37;10.17;;;1.00;99.90;;;;;;2614232;54;20147;-73
2023/03/08 06:38:43;;;;;;;23.50;12.23;;;0.90;99.90;;;;;;2613874;54;20150;-73
2023/03/08 06:44:31;;;;;;;11.30;8.40;;;0.90;99.90;;;;;;2613340;54;20362;-73
2023/03/08 06:50:19;;;;;;;18.00;10.10;;;0.90;99.90;;;;;;2611508;54;20153;-74
2023/03/08 06:56:10;;;;;;;16.47;9.33;;;0.90;99.90;;;;;;2612566;54;20166;-76
2023/03/08 07:01:58;;;;;;;10.80;7.10;;;0.90;99.90;;;;;;2613130;54;20375;-73
2023/03/08 07:07:46;;;;;;;9.97;6.53;;;0.80;99.90;;;;;;2614298;54;20636;-73
2023/03/08 07:13:35;;;;;;;7.27;5.90;;;0.70;99.90;;;;;;2614455;54;20183;-73
2023/03/08 07:19:23;;;;;;;11.37;5.43;;;0.70;99.90;;;;;;2610502;54;20363;-73
2023/03/08 07:25:15;;;;;;;12.40;6.90;;;0.80;99.90;;;;;;2614098;54;20126;-73
2023/03/08 07:31:02;;;;;;;10.03;6.60;;;0.80;99.90;;;;;;2613725;46;20439;-73
2023/03/08 07:34:00;;;;;;;6.40;5.13;;;0.70;99.90;;;;;;2614350;39;20816;-73
2023/03/08 07:36:26;;;;;;;7.73;5.43;;;0.70;99.90;;;;;;2610737;54;20178;-73
2023/03/08 07:42:14;;;;;;;5.47;4.70;;;0.80;99.90;;;;;;2613698;39;20815;-73
2023/03/08 07:48:02;;;;;;;7.70;5.67;;;0.80;99.90;;;;;;2614205;54;20130;-72
2023/03/08 07:53:51;;;;;;;8.93;5.30;;;0.80;99.90;;;;;;2614736;54;20391;-73
2023/03/08 07:59:39;;;;;;;6.73;3.43;;;0.70;99.90;;;;;;2612909;54;20528;-73
2023/03/08 08:08:55;;;;;;;5.30;3.50;;;0.70;99.90;;;;;;2614513;54;20383;-74
2023/03/08 08:14:43;;;;;;;7.73;6.03;;;0.70;99.90;;;;;;2612943;54;20383;-74
2023/03/08 08:20:31;;;;;;;5.43;3.90;;;0.80;99.90;;;;;;2613058;54;20154;-74
2023/03/08 08:26:21;;;;;;;4.20;3.80;;;0.70;99.90;;;;;;2613372;54;20186;-74
2023/03/08 08:32:08;;;;;;;4.30;2.60;;;0.70;99.90;;;;;;2614948;54;20383;-75
2023/03/08 08:37:56;;;;;;;5.70;3.47;;;0.70;99.90;;;;;;2613165;54;20147;-75
2023/03/08 08:43:45;;;;;;;7.60;3.40;;;0.70;99.90;;;;;;2615141;39;20851;-74
2023/03/08 08:49:33;;;;;;;3.20;2.87;;;0.80;99.90;;;;;;2614425;54;20375;-74
2023/03/08 08:55:21;;;;;;;6.20;3.20;;;0.80;99.90;;;;;;2613978;54;20142;-74
2023/03/08 09:01:18;;;;;;;6.87;4.37;;;0.80;99.90;;;;;;2613286;54;20243;-74
2023/03/08 09:04:23;;;;;;;4.10;3.70;;;0.90;99.90;;;;;;2614159;54;20431;-74
2023/03/08 09:06:48;;;;;;;8.57;4.40;;;0.90;99.90;;;;;;2613935;54;20378;-74
2023/03/08 09:12:36;;;;;;;5.03;4.30;;;1.00;99.90;;;;;;2613638;54;20122;-74
2023/03/08 09:18:24;;;;;;;11.60;4.90;;;0.90;99.90;;;;;;2613295;54;20350;-76
2023/03/08 09:24:12;;;;;;;8.40;4.83;;;1.00;99.90;;;;;;2611602;54;20374;-75
2023/03/08 09:30:00;;;;;;;6.10;4.60;;;1.00;99.90;;;;;;2613252;54;20119;-75
2023/03/08 09:35:58;;;;;;;5.27;4.47;;;1.00;99.90;;;;;;2614788;39;20503;-74
2023/03/08 09:48:43;;;;;;;7.30;4.00;;;1.30;99.90;;;;;;2612127;46;20402;-74
2023/03/08 09:54:33;;;;;;;5.57;4.20;;;1.20;99.90;;;;;;2610877;54;20370;-75
2023/03/08 10:04:23;;;;;;;6.13;5.37;;;1.50;99.90;;;;;;2612245;54;20402;-73
2023/03/08 10:19:45;;;;;;;6.73;5.73;;;1.60;99.90;;;;;;2611675;54;20408;-75
2023/03/08 10:25:33;;;;;;;6.20;4.90;;;1.80;99.90;;;;;;2612056;54;20422;-75
2023/03/08 10:31:27;;;;;;;5.67;5.07;;;1.50;99.90;;;;;;2611666;54;20367;-75
2023/03/08 10:37:15;;;;;;;6.83;5.47;;;1.70;99.90;;;;;;2611687;54;20439;-74
2023/03/08 10:43:05;;;;;;;28.53;17.53;;;1.50;99.90;;;;;;2611958;54;20379;-74
2023/03/08 10:48:53;;;;;;;6.90;5.80;;;1.60;99.90;;;;;;2614016;54;20378;-73
2023/03/08 10:54:41;;;;;;;7.70;6.20;;;2.00;99.90;;;;;;2614102;39;20749;-73
2023/03/08 11:00:35;;;;;;;6.97;5.70;;;1.90;99.90;;;;;;2612930;54;20661;-74
2023/03/08 11:09:45;;;;;;;6.43;5.57;;;1.90;99.90;;;;;;2613496;54;20398;-73
2023/03/08 11:15:38;;;;;;;5.80;5.00;;;2.00;99.90;;;;;;2612128;54;20142;-72
2023/03/08 11:21:35;;;;;;;6.10;5.50;;;2.10;99.90;;;;;;2613508;54;20391;-72
2023/03/08 12:00:43;;;;;;;5.93;5.40;;;2.00;99.90;;;;;;2611838;54;20395;-74
2023/03/08 12:16:28;;;;;;;6.70;6.10;;;1.90;99.90;;;;;;2614080;54;20384;-73
2023/03/08 12:29:01;;;;;;;7.77;7.00;;;2.10;99.90;;;;;;2613739;46;20414;-73
2023/03/08 12:41:30;;;;;;;7.60;6.80;;;2.20;99.90;;;;;;2611846;54;21896;-73
2023/03/08 12:47:23;;;;;;;8.07;7.27;;;2.20;99.90;;;;;;2613749;54;20372;-74
2023/03/08 13:00:09;;;;;;;7.43;6.70;;;2.10;99.90;;;;;;2610619;54;20983;-72
2023/03/08 13:09:43;;;;;;;7.90;6.90;;;2.40;99.90;;;;;;2612955;54;20424;-73
2023/03/08 13:12:46;;;;;;;10.77;8.87;;;2.40;99.90;;;;;;2612442;54;20379;-73
2023/03/08 13:15:17;;;;;;;9.30;8.30;;;2.20;99.90;;;;;;2610718;54;20968;-72
2023/03/08 13:27:42;;;;;;;12.50;8.70;;;2.40;99.90;;;;;;2612799;54;20921;-72
2023/03/08 13:40:16;;;;;;;7.87;6.77;;;2.20;99.90;;;;;;2611344;46;20499;-70
2023/03/08 13:46:10;;;;;;;10.17;7.53;;;2.10;99.90;;;;;;2611938;54;20763;-70
2023/03/08 13:52:00;;;;;;;9.83;8.90;;;2.00;99.90;;;;;;2609108;54;20339;-72
2023/03/08 13:57:51;;;;;;;11.93;9.60;;;2.10;99.90;;;;;;2609177;54;20406;-72
2023/03/08 14:03:39;;;;;;;12.00;9.90;;;2.10;99.90;;;;;;2612438;54;20534;-71
2023/03/08 14:12:48;;;;;;;9.93;8.43;;;2.30;99.90;;;;;;2612903;54;20382;-72
2023/03/08 14:18:39;;;;;;;11.33;9.07;;;2.20;99.90;;;;;;2613743;54;20158;-71
2023/03/08 14:24:32;;;;;;;11.80;9.47;;;2.40;99.90;;;;;;2614310;54;21279;-71
2023/03/08 14:36:57;;;;;;;13.00;10.57;;;2.30;99.90;;;;;;2610583;54;20440;-72
2023/03/08 14:42:51;;;;;;;13.90;11.30;;;2.30;99.90;;;;;;2611549;54;20442;-71
2023/03/08 14:48:38;;;;;;;15.20;11.80;;;2.30;99.90;;;;;;2612080;54;20399;-72
2023/03/08 14:54:34;;;;;;;14.43;11.90;;;2.20;99.90;;;;;;2613820;39;20835;-72
2023/03/08 15:00:23;;;;;;;14.70;12.90;;;2.20;99.90;;;;;;2611257;46;20702;-71
2023/03/08 15:06:16;;;;;;;14.10;11.73;;;2.20;99.90;;;;;;2611074;46;20432;-71
2023/03/08 15:15:26;;;;;;;16.20;12.43;;;2.20;99.90;;;;;;2613709;54;20514;-71
2023/03/08 15:27:29;;;;;;;14.73;11.37;;;2.10;99.90;;;;;;2614093;54;20420;-71
2023/03/08 15:33:18;;;;;;;15.93;13.10;;;2.30;99.90;;;;;;2613614;39;20443;-72
2023/03/08 15:39:08;;;;;;;18.30;14.13;;;2.30;99.90;;;;;;2613438;39;21183;-70
2023/03/08 15:44:55;;;;;;;19.03;11.87;;;2.30;99.90;;;;;;2613348;39;20782;-71
2023/03/08 15:50:44;;;;;;;14.70;12.83;;;2.20;99.90;;;;;;2612996;39;20589;-71
2023/03/08 15:56:32;;;;;;;23.67;13.37;;;2.30;99.90;;;;;;2612494;54;20350;-72
2023/03/08 16:02:20;;;;;;;18.47;15.00;;;2.10;99.90;;;;;;2612158;54;20138;-71
2023/03/08 16:08:08;;;;;;;16.20;13.60;;;2.10;99.90;;;;;;2610369;54;20559;-71
2023/03/08 16:10:45;;;;;;;20.00;15.33;;;2.10;99.90;;;;;;2610915;54;20407;-71
2023/03/08 16:13:11;;;;;;;17.00;13.93;;;2.10;99.90;;;;;;2611508;54;20147;-71
2023/03/08 16:18:59;;;;;;;14.47;11.53;;;2.10;99.90;;;;;;2613212;39;20525;-70
2023/03/08 16:24:47;;;;;;;16.17;12.23;;;2.10;99.90;;;;;;2611845;54;20122;-71
2023/03/08 16:30:34;;;;;;;17.03;11.03;;;2.10;99.90;;;;;;2610144;54;20138;-72
2023/03/08 16:36:22;;;;;;;16.93;12.60;;;2.10;99.90;;;;;;2612413;54;20156;-71
2023/03/08 16:42:13;;;;;;;14.93;11.13;;;2.10;99.90;;;;;;2610869;54;20697;-71
2023/03/08 16:48:02;;;;;;;11.47;9.80;;;2.00;99.90;;;;;;2611289;54;20398;-71
2023/03/08 16:53:49;;;;;;;13.30;9.87;;;2.00;99.90;;;;;;2611612;54;21100;-70
2023/03/08 16:59:41;;;;;;;15.43;11.30;;;2.00;99.90;;;;;;2611655;54;20184;-70
2023/03/08 17:05:28;;;;;;;16.00;12.20;;;2.00;99.90;;;;;;2612796;54;20374;-72
2023/03/08 17:21:38;;;;;;;43.73;17.50;;;1.90;99.90;;;;;;2611883;54;20423;-71
2023/03/08 17:27:25;;;;;;;25.90;17.37;;;1.90;99.90;;;;;;2610275;54;20712;-72
2023/03/08 17:33:13;;;;;;;26.33;18.07;;;1.90;99.90;;;;;;2609635;54;20130;-71
2023/03/08 17:39:00;;;;;;;26.10;17.23;;;1.90;99.90;;;;;;2612509;54;20796;-72
2023/03/08 17:44:47;;;;;;;29.20;19.97;;;1.90;99.90;;;;;;2611780;54;20151;-71
2023/03/08 17:50:35;;;;;;;30.80;17.80;;;1.90;99.90;;;;;;2610488;54;20680;-72
2023/03/08 17:56:28;;;;;;;29.10;20.20;;;1.80;99.90;;;;;;2612799;54;20374;-71
2023/03/08 18:02:16;;;;;;;32.07;21.00;;;1.80;99.90;;;;;;2611852;54;20988;-71
2023/03/08 18:08:03;;;;;;;31.23;20.47;;;1.70;99.90;;;;;;2612224;54;20402;-70
2023/03/08 18:14:13;;;;;;;27.90;19.23;;;1.70;99.90;;;;;;2612046;54;20747;-72
2023/03/08 18:20:04;;;;;;;33.37;22.13;;;1.70;99.90;;;;;;2608198;54;20403;-72
2023/03/08 18:25:52;;;;;;;35.27;21.43;;;1.70;99.90;;;;;;2610625;54;20403;-72
2023/03/08 18:31:39;;;;;;;32.20;22.40;;;1.70;99.90;;;;;;2610492;54;20401;-72
2023/03/08 18:37:28;;;;;;;36.97;22.87;;;1.70;99.90;;;;;;2611669;54;20384;-72
2023/03/08 18:43:15;;;;;;;33.43;21.37;;;1.70;99.90;;;;;;2610768;54;20986;-72
2023/03/08 18:49:09;;;;;;;34.80;22.90;;;1.70;99.90;;;;;;2611807;54;20122;-72
2023/03/08 18:54:57;;;;;;;35.17;23.73;;;1.70;99.90;;;;;;2611388;54;20381;-72
2023/03/08 19:00:44;;;;;;;34.13;24.07;;;1.70;99.90;;;;;;2612735;54;20935;-71
2023/03/08 19:06:33;;;;;;;35.60;23.17;;;1.70;99.90;;;;;;2613053;46;20154;-71
2023/03/08 19:15:42;;;;;;;35.97;22.93;;;1.70;99.90;;;;;;2612983;54;20531;-71
2023/03/08 19:21:33;;;;;;;39.83;25.80;;;1.70;99.90;;;;;;2612084;54;20134;-72
2023/03/08 19:27:21;;;;;;;39.03;23.60;;;1.80;99.90;;;;;;2612405;54;20407;-73
2023/03/08 19:33:08;;;;;;;38.93;27.67;;;1.80;99.90;;;;;;2611004;54;20127;-73
2023/03/08 19:38:56;;;;;;;34.47;23.40;;;1.80;99.90;;;;;;2613577;54;20134;-72
2023/03/08 19:44:47;;;;;;;36.07;24.43;;;1.80;99.90;;;;;;2611264;54;20953;-72
2023/03/08 19:50:34;;;;;;;38.20;24.13;;;1.80;99.90;;;;;;2611867;54;20418;-72
2023/03/08 19:56:23;;;;;;;37.20;23.73;;;1.80;99.90;;;;;;2611967;39;20527;-72
2023/03/08 20:02:12;;;;;;;39.83;24.17;;;1.90;99.90;;;;;;2612026;46;20418;-72
2023/03/08 20:08:00;;;;;;;37.40;23.73;;;1.80;99.90;;;;;;2613173;54;20400;-72
2023/03/08 20:13:48;;;;;;;46.33;23.60;;;1.90;99.90;;;;;;2613814;39;20475;-70
2023/03/08 20:22:58;;;;;;;38.13;24.60;;;1.90;99.90;;;;;;2613982;54;20389;-71
2023/03/08 20:28:45;;;;;;;38.47;24.27;;;1.80;99.90;;;;;;2613496;54;20215;-72
2023/03/08 20:34:34;;;;;;;35.30;22.97;;;1.80;99.90;;;;;;2613816;54;20123;-73
2023/03/08 20:40:22;;;;;;;43.37;27.70;;;1.70;99.90;;;;;;2613200;54;20342;-72
2023/03/08 20:46:12;;;;;;;39.23;24.97;;;1.60;99.90;;;;;;2612234;54;20411;-72
2023/03/08 20:52:00;;;;;;;39.13;26.47;;;1.50;99.90;;;;;;2612352;54;20387;-72
2023/03/08 20:57:51;;;;;;;41.57;26.90;;;1.40;99.90;;;;;;2613187;39;20698;-71
2023/03/08 21:03:39;;;;;;;43.57;26.37;;;1.30;99.90;;;;;;2611699;39;20779;-73
2023/03/08 21:09:27;;;;;;;43.40;26.17;;;1.20;99.90;;;;;;2611761;54;20404;-71
2023/03/08 21:15:15;;;;;;;48.37;27.13;;;1.20;99.90;;;;;;2611246;54;20138;-71
2023/03/08 21:18:20;;;;;;;36.57;24.87;;;1.20;99.90;;;;;;2611522;54;20527;-72
2023/03/08 21:20:46;;;;;;;43.40;29.23;;;1.20;99.90;;;;;;2608948;54;20277;-71
2023/03/08 21:26:34;;;;;;;42.97;25.93;;;1.20;99.90;;;;;;2611636;54;20714;-71
2023/03/08 21:32:21;;;;;;;44.17;27.13;;;1.30;99.90;;;;;;2613626;54;20159;-70
2023/03/08 21:38:09;;;;;;;43.50;25.20;;;1.30;99.90;;;;;;2613504;54;20346;-71
2023/03/08 21:43:58;;;;;;;41.77;24.90;;;1.30;99.90;;;;;;2614135;54;20162;-72
2023/03/08 21:49:45;;;;;;;38.33;24.63;;;1.40;99.90;;;;;;2612747;54;20427;-71
2023/03/08 21:55:33;;;;;;;36.17;22.97;;;1.30;99.90;;;;;;2611957;54;20936;-72
2023/03/08 22:01:24;;;;;;;34.83;22.63;;;1.30;99.90;;;;;;2613911;54;20139;-72
2023/03/08 22:07:12;;;;;;;30.60;21.73;;;1.40;99.90;;;;;;2613810;54;20411;-71
2023/03/08 22:13:00;;;;;;;31.97;22.60;;;1.40;99.90;;;;;;2612717;54;20134;-71
2023/03/08 22:22:56;;;;;;;31.27;21.27;;;1.40;99.90;;;;;;2612973;54;20407;-71
2023/03/08 22:28:44;;;;;;;33.50;21.23;;;1.40;99.90;;;;;;2611329;54;20539;-71
2023/03/08 22:34:32;;;;;;;30.80;20.70;;;1.40;99.90;;;;;;2611058;54;20366;-72
2023/03/08 22:40:19;;;;;;;35.80;22.00;;;1.40;99.90;;;;;;2612460;54;20943;-72
2023/03/08 22:46:15;;;;;;;33.23;21.10;;;1.50;99.90;;;;;;2613697;46;20145;-72
2023/03/08 22:52:03;;;;;;;28.43;18.00;;;1.50;99.90;;;;;;2613871;54;20935;-72
2023/03/08 22:57:51;;;;;;;30.37;21.17;;;1.50;99.90;;;;;;2611492;54;20503;-70
2023/03/08 23:03:39;;;;;;;28.33;18.43;;;1.50;99.90;;;;;;2613532;54;20126;-72
2023/03/08 23:09:26;;;;;;;32.80;20.47;;;1.50;99.90;;;;;;2611109;47;20177;-72
2023/03/08 23:15:14;;;;;;;28.07;17.20;;;1.50;99.90;;;;;;2613172;54;20263;-71
2023/03/08 23:18:25;;;;;;;29.07;18.80;;;1.50;99.90;;;;;;2614248;54;20423;-71
2023/03/08 23:20:50;;;;;;;25.00;17.60;;;1.50;99.90;;;;;;2613023;54;20230;-72
2023/03/08 23:26:38;;;;;;;29.30;18.80;;;1.60;99.90;;;;;;2612980;54;20713;-72
2023/03/08 23:32:26;;;;;;;32.63;20.30;;;1.50;99.90;;;;;;2610883;54;20833;-71
2023/03/08 23:38:14;;;;;;;31.10;19.77;;;1.50;99.90;;;;;;2614410;54;20126;-70
2023/03/08 23:44:02;;;;;;;29.53;17.87;;;1.50;99.90;;;;;;2613158;54;20138;-70
2023/03/08 23:49:50;;;;;;;30.33;19.90;;;1.50;99.90;;;;;;2611232;54;20487;-70
2023/03/08 23:55:39;;;;;;;31.10;19.33;;;1.50;99.90;;;;;;2613831;54;20370;-70
